Time;durP1;ratioP1;P1;durP2;ratioP2;P2;SDS_P1;SDS_P2;PMS_P1;PMS_P2;Temp;Humidity;BMP_temperature;BMP_pressure;BME280_temperature;BME280_humidity;BME280_pressure;Samples;Min_cycle;Max_cycle;Signal;HPM_P1;HPM_P2
2023/12/02 13:42:54;;;;;;;34.97;23.57;;;;;;;1.13;100.00;101377.91;5304641;27;20400;-72
2023/12/02 13:45:27;;;;;;;39.37;23.03;;;;;;;1.15;100.00;101382.16;5287587;28;20090;-72
2023/12/02 13:48:06;;;;;;;35.30;22.10;;;;;;;1.23;100.00;101381.22;5288552;28;20032;-73
2023/12/02 13:51:12;;;;;;;33.10;23.23;;;;;;;1.36;100.00;101376.78;5291113;28;20028;-73
2023/12/02 13:53:50;;;;;;;33.07;24.27;;;;;;;1.37;100.00;101376.75;5273325;28;20032;-74
2023/12/02 13:56:37;;;;;;;35.63;23.30;;;;;;;1.39;100.00;101361.25;5290448;28;20055;-72
2023/12/02 13:59:16;;;;;;;35.40;23.73;;;;;;;1.54;100.00;101379.13;5317964;28;20027;-72
2023/12/02 14:02:19;;;;;;;36.60;23.43;;;;;;;1.63;100.00;101374.69;5286419;28;20035;-73
2023/12/02 14:05:13;;;;;;;35.63;23.33;;;;;;;1.66;100.00;101383.25;5288203;28;20461;-72
2023/12/02 14:07:47;;;;;;;34.50;22.43;;;;;;;1.56;100.00;101392.00;5289523;28;20035;-73
2023/12/02 14:10:22;;;;;;;40.00;24.50;;;;;;;1.63;100.00;101385.88;5289350;28;20052;-73
2023/12/02 14:13:17;;;;;;;38.67;23.97;;;;;;;1.51;100.00;101396.38;5289969;28;20459;-73
2023/12/02 14:15:48;;;;;;;33.23;22.33;;;;;;;1.38;100.00;101403.44;5291708;28;20024;-73
2023/12/02 14:18:25;;;;;;;47.13;24.83;;;;;;;1.55;100.00;101404.03;5292693;28;20026;-74
2023/12/02 14:21:30;;;;;;;36.03;25.83;;;;;;;1.57;100.00;101394.56;5291139;28;20439;-74
2023/12/02 14:24:39;;;;;;;43.25;24.77;;;;;;;1.72;100.00;101413.31;5289062;28;20039;-74
2023/12/02 14:27:38;;;;;;;38.63;22.73;;;;;;;1.73;100.00;101417.59;5287198;28;20020;-72
2023/12/02 14:30:26;;;;;;;40.63;25.83;;;;;;;1.71;100.00;101403.84;5289764;28;20039;-70
2023/12/02 14:33:28;;;;;;;40.50;25.37;;;;;;;1.72;100.00;101417.63;5289077;28;20032;-71
2023/12/02 14:36:05;;;;;;;38.50;25.43;;;;;;;1.67;100.00;101415.97;5290359;28;20048;-73
2023/12/02 14:39:17;;;;;;;41.73;25.20;;;;;;;1.69;100.00;101415.94;5289496;28;20025;-72
2023/12/02 14:42:10;;;;;;;37.17;24.77;;;;;;;1.64;100.00;101410.00;5285357;28;20052;-70
2023/12/02 14:44:42;;;;;;;37.93;25.17;;;;;;;1.59;100.00;101430.69;5291559;28;20035;-72
2023/12/02 14:47:14;;;;;;;36.23;24.93;;;;;;;1.58;100.00;101439.31;5294106;28;20487;-72
2023/12/02 14:49:49;;;;;;;43.27;26.33;;;;;;;1.47;100.00;101431.69;5287894;28;20456;-73
2023/12/02 14:52:25;;;;;;;42.60;28.13;;;;;;;1.57;100.00;101443.63;5295470;28;20032;-74
2023/12/02 14:54:58;;;;;;;42.03;26.67;;;;;;;1.36;100.00;101436.13;5278294;28;20055;-73
2023/12/02 14:57:31;;;;;;;38.50;23.90;;;;;;;1.58;100.00;101452.22;5278151;28;20086;-72
2023/12/02 15:00:10;;;;;;;38.30;24.73;;;;;;;1.59;100.00;101455.66;5275373;28;20055;-72
2023/12/02 15:02:49;;;;;;;42.67;26.57;;;;;;;1.51;100.00;101441.13;5278288;28;20102;-71
2023/12/02 15:05:21;;;;;;;39.93;25.23;;;;;;;1.51;100.00;101468.66;5277885;28;20024;-72
2023/12/02 15:07:53;;;;;;;33.60;22.40;;;;;;;1.59;100.00;101474.56;5280228;28;20039;-72
2023/12/02 15:10:26;;;;;;;36.93;23.60;;;;;;;1.53;100.00;101472.09;5278754;28;20025;-71
2023/12/02 15:12:59;;;;;;;33.67;22.13;;;;;;;1.54;100.00;101468.63;5281109;28;20036;-70
2023/12/02 15:15:33;;;;;;;36.77;23.13;;;;;;;1.54;100.00;101481.53;5279037;28;20409;-71
2023/12/02 15:18:06;;;;;;;36.05;23.50;;;;;;;1.53;100.00;101480.69;5279207;28;20029;-71
2023/12/02 15:20:38;;;;;;;32.23;22.53;;;;;;;1.43;100.00;101473.91;5277001;28;20024;-72
2023/12/02 15:23:15;;;;;;;33.80;24.13;;;;;;;1.52;100.00;101483.28;5283830;28;20027;-72
2023/12/02 15:25:51;;;;;;;35.73;23.77;;;;;;;1.44;100.00;101481.66;5231563;28;21058;-72
2023/12/02 15:28:43;;;;;;;37.03;23.33;;;;;;;1.56;100.00;101497.84;5254897;28;20067;-72
2023/12/02 15:31:15;;;;;;;32.87;22.40;;;;;;;1.43;100.00;101498.00;5269063;28;20028;-72
2023/12/02 15:33:55;;;;;;;35.67;23.20;;;;;;;1.41;100.00;101499.75;5275384;28;20491;-72
2023/12/02 15:36:28;;;;;;;31.43;20.97;;;;;;;1.28;100.00;101496.44;5272820;28;20025;-72
2023/12/02 15:38:59;;;;;;;35.63;24.17;;;;;;;1.29;100.00;101497.31;5303316;27;20029;-71
2023/12/02 15:41:31;;;;;;;34.60;22.87;;;;;;;1.30;100.00;101506.75;5268224;28;20032;-71
2023/12/02 15:44:03;;;;;;;41.87;26.70;;;;;;;1.37;100.00;101504.94;5272238;28;20032;-71
2023/12/02 15:46:35;;;;;;;36.30;24.50;;;;;;;1.32;100.00;101507.59;5268725;28;20020;-71
2023/12/02 15:49:06;;;;;;;35.30;24.87;;;;;;;1.36;100.00;101516.16;5272603;28;20433;-70
2023/12/02 15:51:38;;;;;;;40.53;25.47;;;;;;;1.29;100.00;101512.78;5277522;28;20028;-71
2023/12/02 15:54:15;;;;;;;35.23;24.57;;;;;;;1.28;100.00;101524.81;5272835;28;20115;-70
2023/12/02 15:56:47;;;;;;;35.77;25.13;;;;;;;1.27;100.00;101535.16;5228527;28;20794;-70
2023/12/02 15:59:20;;;;;;;37.50;24.73;;;;;;;1.31;100.00;101542.00;5276540;28;20035;-70
2023/12/02 16:01:52;;;;;;;34.50;24.50;;;;;;;1.32;100.00;101542.00;5258031;28;20060;-70
2023/12/02 16:04:25;;;;;;;35.50;24.00;;;;;;;1.37;100.00;101544.53;5167297;28;20425;-71
2023/12/02 16:06:58;;;;;;;34.43;24.13;;;;;;;1.38;100.00;101543.66;5259411;28;20032;-71
2023/12/02 16:09:29;;;;;;;39.43;26.33;;;;;;;1.31;100.00;101547.16;5272356;28;20016;-71
2023/12/02 16:12:00;;;;;;;33.80;23.40;;;;;;;1.27;100.00;101545.50;5272752;28;20020;-70
2023/12/02 16:14:33;;;;;;;37.47;25.17;;;;;;;1.28;100.00;101542.03;5270420;28;20032;-71
2023/12/02 16:17:08;;;;;;;38.87;25.40;;;;;;;1.33;100.00;101550.59;5272256;28;20020;-70
2023/12/02 16:19:39;;;;;;;34.70;25.27;;;;;;;1.32;100.00;101554.03;5276848;28;20128;-69
2023/12/02 16:22:15;;;;;;;41.93;26.30;;;;;;;1.28;100.00;101562.66;5263997;28;20028;-69
2023/12/02 16:24:48;;;;;;;38.17;24.27;;;;;;;1.34;100.00;101557.47;5276013;28;20028;-69
2023/12/02 16:27:22;;;;;;;38.83;25.77;;;;;;;1.32;100.00;101552.31;5273946;28;20427;-69
2023/12/02 16:29:53;;;;;;;38.03;25.35;;;;;;;1.24;100.00;101558.44;5276295;28;20034;-68
2023/12/02 16:32:25;;;;;;;34.97;24.50;;;;;;;1.35;100.00;101569.50;5268308;28;20008;-69
2023/12/02 16:34:56;;;;;;;36.10;23.77;;;;;;;1.31;100.00;101560.06;5273381;28;20039;-69
2023/12/02 16:37:27;;;;;;;38.33;25.80;;;;;;;1.28;100.00;101562.66;5274124;28;20419;-69
2023/12/02 16:39:59;;;;;;;38.67;25.77;;;;;;;1.31;100.00;101572.97;5273816;28;20028;-70
2023/12/02 16:42:31;;;;;;;39.00;26.23;;;;;;;1.37;100.00;101580.66;5269891;28;20059;-69
2023/12/02 16:45:13;;;;;;;35.93;25.57;;;;;;;1.43;100.00;101584.94;5277425;28;20597;-70
2023/12/02 16:47:48;;;;;;;37.33;25.40;;;;;;;1.35;100.00;101586.69;5273513;28;20035;-69
2023/12/02 16:50:31;;;;;;;37.47;26.20;;;;;;;1.42;100.00;101596.09;5276289;28;20059;-70
2023/12/02 16:53:02;;;;;;;38.00;25.07;;;;;;;1.30;100.00;101591.91;5270101;28;20028;-70
2023/12/02 16:55:35;;;;;;;37.00;24.17;;;;;;;1.28;100.00;101596.22;5283932;28;20379;-70
2023/12/02 16:58:08;;;;;;;36.13;24.30;;;;;;;1.24;100.00;101602.31;5275546;28;20025;-70
2023/12/02 17:00:41;;;;;;;41.67;25.97;;;;;;;1.24;100.00;101605.72;5272515;28;20033;-70
2023/12/02 17:03:35;;;;;;;39.10;25.20;;;;;;;1.25;100.00;101602.28;5279125;28;21179;-70
2023/12/02 17:06:10;;;;;;;39.72;25.90;;;;;;;1.25;100.00;101609.16;5274211;28;20032;-70
2023/12/02 17:08:42;;;;;;;42.15;26.77;;;;;;;1.12;100.00;101596.34;5253736;28;20588;-70
2023/12/02 17:11:17;;;;;;;38.33;24.53;;;;;;;1.25;100.00;101609.16;5282509;28;20025;-70
2023/12/02 17:14:02;;;;;;;36.78;25.40;;;;;;;1.33;100.00;101607.38;5275617;28;20020;-70
2023/12/02 17:16:34;;;;;;;36.73;26.20;;;;;;;1.18;100.00;101614.38;5282187;28;20130;-70
2023/12/02 17:19:10;;;;;;;42.03;25.53;;;;;;;1.23;100.00;101613.47;5276718;28;20032;-70
2023/12/02 17:21:42;;;;;;;37.20;25.50;;;;;;;1.23;100.00;101626.38;5306821;28;20390;-70
2023/12/02 17:24:52;;;;;;;37.83;24.13;;;;;;;1.25;100.00;101624.66;5274806;28;20016;-70
2023/12/02 17:27:40;;;;;;;36.17;23.50;;;;;;;1.15;100.00;101624.69;5189324;28;20030;-70
2023/12/02 17:30:11;;;;;;;37.43;24.13;;;;;;;1.15;100.00;101635.03;5171735;28;20386;-70
2023/12/02 17:32:43;;;;;;;37.30;25.60;;;;;;;1.14;100.00;101630.75;5245336;28;20048;-70
2023/12/02 17:35:14;;;;;;;40.47;26.50;;;;;;;1.18;100.00;101626.41;5275074;28;20032;-71
2023/12/02 17:37:45;;;;;;;35.00;23.57;;;;;;;1.16;100.00;101623.00;5274157;28;20059;-70
2023/12/02 17:40:18;;;;;;;37.83;23.50;;;;;;;1.15;100.00;101627.28;5273827;28;20032;-69
2023/12/02 17:42:49;;;;;;;37.07;25.03;;;;;;;1.19;100.00;101626.41;5274467;28;20040;-70
2023/12/02 17:45:20;;;;;;;36.83;24.97;;;;;;;1.17;100.00;101622.13;5274605;28;20036;-69
2023/12/02 17:47:51;;;;;;;39.60;25.43;;;;;;;1.24;100.00;101622.94;5274344;28;20100;-71
2023/12/02 17:50:25;;;;;;;38.07;25.00;;;;;;;1.20;100.00;101630.69;5274698;28;20035;-71
2023/12/02 17:52:56;;;;;;;36.50;25.53;;;;;;;1.23;100.00;101618.63;5201825;28;20050;-70
2023/12/02 17:55:27;;;;;;;36.47;24.07;;;;;;;1.11;100.00;101628.19;5250884;28;20238;-71
2023/12/02 17:57:58;;;;;;;37.03;24.73;;;;;;;1.17;100.00;101625.56;5262283;28;20032;-72
2023/12/02 18:00:30;;;;;;;37.33;24.70;;;;;;;1.12;100.00;101629.06;5271278;28;20032;-71
2023/12/02 18:03:01;;;;;;;40.30;25.53;;;;;;;1.28;100.00;101640.09;5276551;28;20020;-71
2023/12/02 18:05:32;;;;;;;40.27;25.53;;;;;;;1.21;100.00;101626.38;5271420;28;20032;-71
2023/12/02 18:08:05;;;;;;;36.77;25.23;;;;;;;1.31;100.00;101643.50;5272528;28;20032;-71
2023/12/02 18:10:36;;;;;;;40.83;26.57;;;;;;;1.26;100.00;101639.25;5273782;28;20024;-71
2023/12/02 18:13:07;;;;;;;37.47;26.50;;;;;;;1.20;100.00;101640.19;5274906;28;20043;-71
2023/12/02 18:15:38;;;;;;;35.43;24.57;;;;;;;1.24;100.00;101641.00;5280285;28;20070;-68
2023/12/02 18:18:12;;;;;;;40.77;27.37;;;;;;;1.26;100.00;101642.69;5274251;28;20364;-68
2023/12/02 18:20:44;;;;;;;39.20;26.77;;;;;;;1.22;100.00;101646.19;5268692;28;20016;-71
2023/12/02 18:23:17;;;;;;;38.87;23.90;;;;;;;1.20;100.00;101640.19;5273033;28;20013;-71
2023/12/02 18:25:49;;;;;;;40.43;25.80;;;;;;;1.17;100.00;101635.88;5273598;28;20071;-71
2023/12/02 18:28:21;;;;;;;38.93;25.20;;;;;;;1.19;100.00;101646.19;5272964;28;20495;-71
2023/12/02 18:30:52;;;;;;;41.67;24.07;;;;;;;1.19;100.00;101652.22;5269987;28;20137;-71
2023/12/02 18:33:23;;;;;;;43.20;26.10;;;;;;;1.17;100.00;101646.19;5268246;28;20040;-71
2023/12/02 18:35:54;;;;;;;34.93;24.40;;;;;;;1.13;100.00;101643.66;5274934;28;20111;-72
2023/12/02 18:38:26;;;;;;;38.67;27.33;;;;;;;1.10;100.00;101651.44;5273626;28;20036;-72
2023/12/02 18:40:57;;;;;;;42.43;25.60;;;;;;;1.06;100.00;101648.00;5276933;28;20040;-71
2023/12/02 18:43:28;;;;;;;36.60;23.90;;;;;;;0.90;100.00;101637.81;5274231;28;21395;-72
2023/12/02 18:46:00;;;;;;;36.73;25.20;;;;;;;1.00;100.00;101650.63;5273987;28;20020;-72
2023/12/02 18:48:31;;;;;;;40.70;26.43;;;;;;;0.79;100.00;101647.31;5270178;28;20028;-71
2023/12/02 18:51:02;;;;;;;40.93;26.83;;;;;;;0.86;100.00;101642.97;5276720;28;20037;-70
2023/12/02 18:53:34;;;;;;;37.97;25.83;;;;;;;0.93;100.00;101650.66;5270645;28;20070;-71
2023/12/02 18:56:06;;;;;;;42.67;26.93;;;;;;;0.91;100.00;101642.06;5271488;28;20777;-71
2023/12/02 18:58:37;;;;;;;42.30;27.43;;;;;;;0.88;100.00;101651.56;5271195;28;20568;-70
2023/12/02 19:01:08;;;;;;;39.40;25.57;;;;;;;0.90;100.00;101645.53;5271439;28;20036;-70
2023/12/02 19:03:39;;;;;;;37.33;24.43;;;;;;;0.87;100.00;101648.13;5244750;28;20541;-72
2023/12/02 19:06:11;;;;;;;38.53;26.10;;;;;;;0.82;100.00;101647.31;5308792;27;20028;-72
2023/12/02 19:08:42;;;;;;;40.43;26.30;;;;;;;0.89;100.00;101658.44;5273724;28;20590;-71
2023/12/02 19:11:14;;;;;;;41.17;26.17;;;;;;;0.81;100.00;101645.56;5276926;28;20038;-71
2023/12/02 19:13:45;;;;;;;38.87;24.80;;;;;;;0.87;100.00;101661.03;5271989;28;20056;-71
2023/12/02 19:16:16;;;;;;;40.13;25.27;;;;;;;0.86;100.00;101659.31;5277837;28;20047;-71
2023/12/02 19:18:48;;;;;;;40.37;26.10;;;;;;;0.79;100.00;101663.66;5276127;28;20117;-71
2023/12/02 19:21:19;;;;;;;39.67;26.93;;;;;;;0.80;100.00;101664.50;5271656;28;20036;-70
2023/12/02 19:23:50;;;;;;;38.77;25.87;;;;;;;0.85;100.00;101665.34;5274206;28;20024;-70
2023/12/02 19:26:25;;;;;;;37.43;24.90;;;;;;;0.68;100.00;101650.81;5270002;28;20029;-71
2023/12/02 19:28:56;;;;;;;48.00;27.02;;;;;;;0.69;100.00;101668.00;5277021;28;20036;-71
2023/12/02 19:31:28;;;;;;;41.97;24.63;;;;;;;0.75;100.00;101668.84;5277132;28;20432;-71
2023/12/02 19:33:59;;;;;;;41.07;26.83;;;;;;;0.67;100.00;101659.41;5274282;28;20028;-73
2023/12/02 19:36:30;;;;;;;39.40;24.00;;;;;;;0.67;100.00;101669.72;5276550;28;20036;-71
2023/12/02 19:39:03;;;;;;;38.43;25.83;;;;;;;0.72;100.00;101675.72;5276445;28;20024;-71
2023/12/02 19:41:34;;;;;;;38.40;25.60;;;;;;;0.73;100.00;101668.84;5276673;28;20538;-71
2023/12/02 19:44:06;;;;;;;39.00;26.63;;;;;;;0.70;100.00;101674.84;5276825;28;20089;-71
2023/12/02 19:46:37;;;;;;;43.13;29.17;;;;;;;0.71;100.00;101686.03;5276915;28;20032;-71
2023/12/02 19:49:08;;;;;;;45.17;28.43;;;;;;;0.65;100.00;101680.91;5277096;28;20020;-71
2023/12/02 19:51:40;;;;;;;42.60;29.60;;;;;;;0.62;100.00;101674.03;5274769;28;20047;-71
2023/12/02 19:54:11;;;;;;;42.87;29.53;;;;;;;0.64;100.00;101680.06;5276765;28;20017;-71
2023/12/02 19:56:42;;;;;;;43.90;27.83;;;;;;;0.64;100.00;101679.19;5277426;28;20577;-71
2023/12/02 19:59:14;;;;;;;40.00;26.30;;;;;;;0.68;100.00;101688.63;5277001;28;20028;-71
2023/12/02 20:01:45;;;;;;;42.43;24.90;;;;;;;0.65;100.00;101699.81;5275368;28;20020;-71
2023/12/02 20:04:16;;;;;;;43.40;25.70;;;;;;;0.65;100.00;101691.22;5276203;28;20055;-70
2023/12/02 20:06:48;;;;;;;38.17;25.37;;;;;;;0.67;100.00;101698.09;5274843;28;20107;-70
2023/12/02 20:09:21;;;;;;;43.97;28.20;;;;;;;0.70;100.00;101694.63;5276138;28;20029;-71
2023/12/02 20:11:53;;;;;;;40.37;26.97;;;;;;;0.65;100.00;101702.38;5275757;28;20130;-70
2023/12/02 20:14:24;;;;;;;42.57;26.33;;;;;;;0.62;100.00;101692.09;5275789;28;20095;-71
2023/12/02 20:16:55;;;;;;;42.90;26.60;;;;;;;0.64;100.00;101705.84;5275906;28;20483;-70
2023/12/02 20:19:28;;;;;;;44.50;26.57;;;;;;;0.63;100.00;101711.84;5273480;28;20056;-70
2023/12/02 20:21:59;;;;;;;43.63;27.23;;;;;;;0.57;100.00;101711.88;5272979;28;20024;-72
2023/12/02 20:24:31;;;;;;;39.30;25.13;;;;;;;0.62;100.00;101719.59;5275484;28;20374;-73
2023/12/02 20:27:02;;;;;;;42.10;27.77;;;;;;;0.58;100.00;101713.59;5274892;28;20039;-72
2023/12/02 20:29:33;;;;;;;39.13;25.07;;;;;;;0.62;100.00;101712.72;5275471;28;20059;-71
2023/12/02 20:32:05;;;;;;;40.17;24.90;;;;;;;0.60;100.00;101714.44;5274848;28;20110;-71
2023/12/02 20:34:37;;;;;;;40.50;26.00;;;;;;;0.55;100.00;101700.72;5307981;28;20029;-71
2023/12/02 20:37:11;;;;;;;40.37;26.07;;;;;;;0.63;100.00;101721.31;5290174;28;20453;-74
2023/12/02 20:39:42;;;;;;;41.57;27.10;;;;;;;0.64;100.00;101720.44;5273256;28;20467;-71
2023/12/02 20:42:13;;;;;;;40.27;27.57;;;;;;;0.63;100.00;101722.16;5275357;28;20113;-71
2023/12/02 20:44:45;;;;;;;45.97;26.37;;;;;;;0.57;100.00;101711.88;5273082;28;20029;-72
2023/12/02 20:47:16;;;;;;;42.17;27.03;;;;;;;0.54;100.00;101714.47;5274587;28;20021;-71
2023/12/02 20:49:47;;;;;;;41.93;27.37;;;;;;;0.50;100.00;101717.91;5274663;28;20047;-72
2023/12/02 20:52:18;;;;;;;41.13;26.43;;;;;;;0.56;100.00;101715.34;5273136;28;20029;-72
2023/12/02 20:54:50;;;;;;;48.07;29.57;;;;;;;0.54;100.00;101714.47;5273773;28;20098;-72
2023/12/02 20:57:21;;;;;;;42.83;27.33;;;;;;;0.54;100.00;101719.63;5275509;28;20036;-71
2023/12/02 20:59:52;;;;;;;48.13;27.50;;;;;;;0.51;100.00;101719.66;5273847;28;20475;-72
2023/12/02 21:02:24;;;;;;;40.87;27.23;;;;;;;0.52;100.00;101711.03;5273833;28;20055;-71
2023/12/02 21:04:55;;;;;;;43.17;25.83;;;;;;;0.46;100.00;101717.06;5274308;28;20587;-71
2023/12/02 21:07:26;;;;;;;43.60;28.37;;;;;;;0.46;100.00;101717.06;5255596;28;20024;-72
2023/12/02 21:09:59;;;;;;;44.23;26.00;;;;;;;0.42;100.00;101723.94;5272816;28;20041;-71
2023/12/02 21:12:30;;;;;;;46.17;28.17;;;;;;;0.36;100.00;101723.97;5273706;28;20017;-70
2023/12/02 21:15:03;;;;;;;43.63;28.93;;;;;;;0.36;100.00;101718.81;5273852;28;20081;-71
2023/12/02 21:17:36;;;;;;;44.00;27.90;;;;;;;0.34;100.00;101724.00;5272988;28;20047;-71
2023/12/02 21:20:08;;;;;;;49.20;28.10;;;;;;;0.32;100.00;101735.16;5274482;28;20060;-71
2023/12/02 21:22:40;;;;;;;44.80;29.03;;;;;;;0.30;100.00;101742.00;5273632;28;20067;-70
2023/12/02 21:25:11;;;;;;;46.83;27.43;;;;;;;0.24;100.00;101728.28;5267893;28;20020;-72
2023/12/02 21:27:44;;;;;;;44.93;29.37;;;;;;;0.28;100.00;101738.59;5274294;28;20107;-68
2023/12/02 21:30:36;;;;;;;45.53;28.33;;;;;;;0.33;100.00;101739.47;5270885;28;20037;-70
2023/12/02 21:33:14;;;;;;;46.23;29.67;;;;;;;0.29;100.00;101742.88;5257715;28;20112;-74
2023/12/02 21:35:53;;;;;;;42.70;28.20;;;;;;;0.34;100.00;101741.16;5270890;28;20056;-71
2023/12/02 21:38:42;;;;;;;48.07;28.67;;;;;;;0.28;100.00;101736.03;5273238;28;20056;-72
2023/12/02 21:41:16;;;;;;;50.07;30.47;;;;;;;0.27;100.00;101739.44;5273741;28;20123;-74
2023/12/02 21:43:48;;;;;;;47.00;31.88;;;;;;;0.16;100.00;101744.66;5274484;28;20035;-71
2023/12/02 21:46:26;;;;;;;50.73;31.23;;;;;;;0.14;100.00;101736.06;5274274;28;20602;-73
2023/12/02 21:49:03;;;;;;;55.57;33.40;;;;;;;0.19;100.00;101745.47;5274908;28;20056;-71
2023/12/02 21:51:42;;;;;;;53.60;30.33;;;;;;;0.16;100.00;101753.22;5271588;28;20419;-73
2023/12/02 21:54:16;;;;;;;50.20;30.63;;;;;;;0.11;100.00;101742.06;5274145;28;20498;-71
2023/12/02 21:56:50;;;;;;;50.28;30.73;;;;;;;0.13;100.00;101750.66;5272902;28;20112;-72
2023/12/02 21:59:24;;;;;;;49.50;30.38;;;;;;;0.18;100.00;101751.50;5268720;28;20017;-73
2023/12/02 22:01:56;;;;;;;51.07;30.83;;;;;;;0.17;100.00;101748.94;5272108;28;20028;-72
2023/12/02 22:04:38;;;;;;;54.20;31.30;;;;;;;0.24;100.00;101748.06;5270263;28;20367;-73
2023/12/02 22:07:16;;;;;;;51.43;31.07;;;;;;;0.23;100.00;101760.06;5276282;28;20032;-72
2023/12/02 22:09:48;;;;;;;50.90;30.03;;;;;;;0.18;100.00;101764.38;5278097;28;20029;-73
2023/12/02 22:12:42;;;;;;;51.60;28.27;;;;;;;0.38;100.00;101767.78;5272155;28;20414;-74
2023/12/02 22:15:34;;;;;;;52.00;30.83;;;;;;;0.26;100.00;101774.69;5273529;28;20050;-73
2023/12/02 22:18:11;;;;;;;48.93;29.33;;;;;;;0.14;100.00;101767.81;5276313;28;20024;-70
2023/12/02 22:20:43;;;;;;;51.90;28.80;;;;;;;0.13;100.00;101771.25;5277568;28;20036;-71
2023/12/02 22:23:14;;;;;;;50.67;26.27;;;;;;;0.11;100.00;101768.69;5276527;28;20050;-70
2023/12/02 22:25:50;;;;;;;54.27;30.57;;;;;;;0.15;100.00;101777.28;5277079;28;20024;-73
2023/12/02 22:28:21;;;;;;;54.47;30.43;;;;;;;0.16;100.00;101776.41;5278243;28;20116;-70
2023/12/02 22:30:52;;;;;;;57.87;31.27;;;;;;;0.21;100.00;101774.69;5276433;28;20103;-71
2023/12/02 22:33:25;;;;;;;88.33;44.50;;;;;;;0.10;100.00;101771.25;5278507;28;20487;-72
2023/12/02 22:36:01;;;;;;;83.53;45.57;;;;;;;0.18;100.00;101782.41;5276157;28;20021;-73
2023/12/02 22:38:35;;;;;;;72.43;39.57;;;;;;;0.07;100.00;101779.00;5276604;28;20034;-73
2023/12/02 22:41:07;;;;;;;48.55;28.23;;;;;;;-0.02;100.00;101775.53;5277439;28;20048;-73
2023/12/02 22:43:41;;;;;;;49.03;28.37;;;;;;;0.23;100.00;101775.53;5277369;28;20024;-72
2023/12/02 22:46:13;;;;;;;53.95;31.02;;;;;;;0.23;100.00;101774.66;5276845;28;20105;-72
2023/12/02 22:48:47;;;;;;;52.97;28.07;;;;;;;0.28;100.00;101790.16;5276447;28;20447;-73
2023/12/02 22:51:26;;;;;;;50.92;23.98;;;;;;;0.33;100.00;101781.53;5277311;28;20028;-71
2023/12/02 22:53:58;;;;;;;56.17;30.67;;;;;;;0.28;100.00;101785.00;5277302;28;20019;-73
2023/12/02 22:56:35;;;;;;;48.17;27.20;;;;;;;0.29;100.00;101792.72;5277997;28;20016;-74
2023/12/02 22:59:08;;;;;;;52.63;27.63;;;;;;;0.09;100.00;101795.28;5272853;28;20029;-69
2023/12/02 23:01:41;;;;;;;45.13;27.53;;;;;;;0.09;100.00;101791.00;5275134;28;20055;-72
2023/12/02 23:04:18;;;;;;;41.80;26.43;;;;;;;0.26;100.00;101802.16;5271371;28;20031;-71
2023/12/02 23:06:50;;;;;;;44.20;27.73;;;;;;;0.16;100.00;101786.72;5276010;28;20742;-70
2023/12/02 23:09:27;;;;;;;45.83;28.83;;;;;;;0.17;100.00;101793.59;5277246;28;20020;-70
2023/12/02 23:12:04;;;;;;;41.70;25.73;;;;;;;0.31;100.00;101800.44;5276728;28;20044;-69
2023/12/02 23:14:53;;;;;;;41.03;28.17;;;;;;;0.30;100.00;101801.28;5275850;28;20028;-69
2023/12/02 23:17:26;;;;;;;41.60;27.20;;;;;;;0.30;100.00;101794.41;5272122;28;20063;-77
2023/12/02 23:20:02;;;;;;;40.53;26.30;;;;;;;0.43;100.00;101799.56;5276382;28;20021;-78
2023/12/02 23:22:35;;;;;;;41.20;27.03;;;;;;;0.38;100.00;101799.56;5275730;28;20531;-75
2023/12/02 23:25:15;;;;;;;43.30;27.73;;;;;;;0.41;100.00;101801.28;5292500;28;20622;-80
2023/12/02 23:27:46;;;;;;;37.30;26.40;;;;;;;0.42;100.00;101805.59;5275147;28;20028;-74
2023/12/02 23:30:18;;;;;;;38.27;26.83;;;;;;;0.39;100.00;101793.56;5272585;28;20747;-77
2023/12/02 23:32:50;;;;;;;36.27;25.23;;;;;;;0.46;100.00;101805.56;5270791;28;20032;-79
2023/12/02 23:35:24;;;;;;;36.20;26.30;;;;;;;0.29;100.00;101760.94;5272847;28;20025;-81
2023/12/02 23:37:55;;;;;;;34.97;24.77;;;;;;;0.55;100.00;101806.41;5266579;28;20779;-79
2023/12/02 23:40:28;;;;;;;36.07;24.97;;;;;;;0.57;100.00;101812.44;5271948;28;20048;-83
2023/12/02 23:43:01;;;;;;;32.80;23.67;;;;;;;0.61;100.00;101809.00;5268171;28;20045;-78
2023/12/02 23:45:33;;;;;;;34.33;25.10;;;;;;;0.65;100.00;101810.69;5264434;28;20033;-77
2023/12/02 23:48:04;;;;;;;38.13;25.17;;;;;;;0.66;100.00;101812.41;5262052;28;20028;-77
2023/12/02 23:50:35;;;;;;;37.93;27.33;;;;;;;0.68;100.00;101817.56;5270987;28;20033;-75
2023/12/02 23:53:08;;;;;;;35.07;26.23;;;;;;;0.68;100.00;101815.81;5268758;28;20709;-76
2023/12/02 23:55:41;;;;;;;35.50;25.73;;;;;;;0.68;100.00;101805.50;5275149;28;20037;-77
2023/12/02 23:58:12;;;;;;;33.50;24.00;;;;;;;0.65;100.00;101778.88;5271757;28;20467;-76
